Time;durP1;ratioP1;P1;durP2;ratioP2;P2;SDS_P1;SDS_P2;PMS_P1;PMS_P2;Temp;Humidity;BMP_temperature;BMP_pressure;BME280_temperature;BME280_humidity;BME280_pressure;Samples;Min_cycle;Max_cycle;Signal;HPM_P1;HPM_P2
2023/10/21 00:00:31;;;;;;;1.92;0.40;;;11.90;99.90;;;;;;5031974;28;20112;-71
2023/10/21 00:02:57;;;;;;;1.13;0.40;;;11.90;99.90;;;;;;5036324;28;20034;-72
2023/10/21 00:05:25;;;;;;;1.52;0.30;;;11.90;99.90;;;;;;5036993;28;20121;-71
2023/10/21 00:07:50;;;;;;;1.85;0.40;;;11.90;99.90;;;;;;5037373;28;20381;-72
2023/10/21 00:10:17;;;;;;;1.27;0.40;;;11.90;99.90;;;;;;5036887;28;20022;-71
2023/10/21 00:12:44;;;;;;;1.75;0.50;;;11.80;99.90;;;;;;5036943;28;20029;-71
2023/10/21 00:15:10;;;;;;;1.52;0.50;;;11.80;99.90;;;;;;5036913;28;20108;-71
2023/10/21 00:17:36;;;;;;;0.63;0.40;;;11.80;99.90;;;;;;5036898;28;20120;-72
2023/10/21 00:20:06;;;;;;;1.42;0.60;;;11.70;99.90;;;;;;5036920;28;20030;-71
2023/10/21 00:22:32;;;;;;;3.53;2.03;;;11.60;99.90;;;;;;5037245;28;20108;-71
2023/10/21 00:24:58;;;;;;;5.88;2.50;;;11.50;99.90;;;;;;5036721;28;20029;-71
2023/10/21 00:27:23;;;;;;;1.92;0.90;;;11.50;99.90;;;;;;5036947;28;20377;-71
2023/10/21 00:29:49;;;;;;;1.90;0.45;;;11.40;99.90;;;;;;5036532;28;20068;-71
2023/10/21 00:32:16;;;;;;;1.35;0.70;;;11.30;99.90;;;;;;5036864;28;20030;-71
2023/10/21 00:34:42;;;;;;;1.80;0.70;;;11.30;99.90;;;;;;5036536;28;20029;-71
2023/10/21 00:37:08;;;;;;;0.65;0.30;;;11.40;99.90;;;;;;5036539;28;20034;-72
2023/10/21 00:39:35;;;;;;;1.63;0.40;;;11.40;99.90;;;;;;5036326;28;20025;-71
2023/10/21 00:42:01;;;;;;;0.70;0.30;;;11.40;99.90;;;;;;5036456;28;20079;-72
2023/10/21 00:44:27;;;;;;;1.40;0.60;;;11.40;99.90;;;;;;5036385;28;20029;-71
2023/10/21 00:46:54;;;;;;;0.50;0.30;;;11.40;99.90;;;;;;5036320;28;20029;-71
2023/10/21 00:49:19;;;;;;;1.02;0.55;;;11.40;99.90;;;;;;5036264;28;20017;-71
2023/10/21 00:51:47;;;;;;;0.80;0.40;;;11.40;99.90;;;;;;5035050;28;20396;-72
2023/10/21 00:54:14;;;;;;;1.95;0.50;;;11.40;99.90;;;;;;5034874;28;20478;-71
2023/10/21 00:56:40;;;;;;;1.70;0.40;;;11.40;99.90;;;;;;5036106;28;20087;-71
2023/10/21 00:59:06;;;;;;;0.63;0.40;;;11.40;99.90;;;;;;5035889;28;20038;-72
2023/10/21 01:01:34;;;;;;;0.82;0.30;;;11.40;99.90;;;;;;5035955;28;20033;-72
2023/10/21 01:04:00;;;;;;;1.25;0.45;;;11.40;99.90;;;;;;5035973;28;20028;-71
2023/10/21 01:06:26;;;;;;;0.73;0.43;;;11.30;99.90;;;;;;5036004;28;20025;-71
2023/10/21 01:08:52;;;;;;;0.82;0.30;;;11.30;99.90;;;;;;5035856;28;20026;-71
2023/10/21 01:11:18;;;;;;;1.25;0.40;;;11.20;99.90;;;;;;5035936;28;20030;-71
2023/10/21 01:13:44;;;;;;;2.53;0.40;;;11.10;99.90;;;;;;5033352;28;20436;-72
2023/10/21 01:16:10;;;;;;;3.80;0.30;;;10.90;99.90;;;;;;5035722;28;20065;-71
2023/10/21 01:18:38;;;;;;;1.40;0.47;;;10.80;99.90;;;;;;5034488;28;20037;-71
2023/10/21 01:21:03;;;;;;;1.60;0.28;;;10.70;99.90;;;;;;5035608;28;20029;-71
2023/10/21 01:23:30;;;;;;;3.20;0.40;;;10.60;99.90;;;;;;5035897;28;20025;-72
2023/10/21 01:25:56;;;;;;;1.73;0.43;;;10.50;99.90;;;;;;5034433;28;20033;-72
2023/10/21 01:28:22;;;;;;;2.63;0.70;;;10.50;99.90;;;;;;5034871;28;20382;-71
2023/10/21 01:30:47;;;;;;;1.33;0.60;;;10.50;99.90;;;;;;5035440;28;20478;-71
2023/10/21 01:33:14;;;;;;;1.15;0.55;;;10.40;99.90;;;;;;5035486;28;20060;-72
2023/10/21 01:35:39;;;;;;;2.33;0.50;;;10.30;99.90;;;;;;5035435;28;20028;-72
2023/10/21 01:38:05;;;;;;;1.23;0.60;;;10.40;99.90;;;;;;5035330;28;20022;-72
2023/10/21 01:40:31;;;;;;;1.52;0.60;;;10.40;99.90;;;;;;5035935;28;20034;-69
2023/10/21 01:42:57;;;;;;;0.82;0.50;;;10.40;99.90;;;;;;5035195;28;20482;-69
2023/10/21 01:45:23;;;;;;;0.70;0.30;;;10.40;99.90;;;;;;5035218;28;20029;-69
2023/10/21 01:47:49;;;;;;;0.95;0.45;;;10.40;99.90;;;;;;5035183;28;20462;-69
2023/10/21 01:50:14;;;;;;;2.30;0.50;;;10.40;99.90;;;;;;5035618;28;20095;-69
2023/10/21 01:52:40;;;;;;;0.65;0.30;;;10.40;99.90;;;;;;5035095;28;20444;-69
2023/10/21 01:55:11;;;;;;;2.05;0.40;;;10.30;99.90;;;;;;5035101;28;20397;-69
2023/10/21 01:57:37;;;;;;;0.95;0.30;;;10.30;99.90;;;;;;5035378;28;20029;-69
2023/10/21 02:00:08;;;;;;;0.70;0.50;;;10.20;99.90;;;;;;5034877;28;20478;-69
2023/10/21 02:02:34;;;;;;;;;;;10.10;99.90;;;;;;5035302;28;20028;-69
2023/10/21 02:05:00;;;;;;;0.80;0.35;;;10.10;99.90;;;;;;5034871;28;19916;-69
2023/10/21 02:07:26;;;;;;;1.65;0.30;;;10.10;99.90;;;;;;5035095;28;20025;-69
2023/10/21 02:09:51;;;;;;;1.85;0.30;;;10.00;99.90;;;;;;5034746;28;20029;-69
2023/10/21 02:12:17;;;;;;;1.00;0.40;;;10.10;99.90;;;;;;5034730;28;20037;-69
2023/10/21 02:14:42;;;;;;;1.25;0.60;;;10.10;99.90;;;;;;5033504;28;20030;-69
2023/10/21 02:17:08;;;;;;;3.67;1.00;;;10.00;99.90;;;;;;5034624;28;20051;-69
2023/10/21 02:19:34;;;;;;;3.85;1.50;;;10.00;99.90;;;;;;5033719;28;20036;-69
2023/10/21 02:21:59;;;;;;;2.95;1.70;;;10.00;99.90;;;;;;5034457;28;20103;-69
2023/10/21 02:24:25;;;;;;;4.43;1.73;;;9.90;99.90;;;;;;5032786;28;20044;-69
2023/10/21 02:26:51;;;;;;;3.35;1.10;;;9.80;99.90;;;;;;5034411;28;20025;-69
2023/10/21 02:29:17;;;;;;;2.22;0.70;;;9.80;99.90;;;;;;5034804;28;20030;-69
2023/10/21 02:31:42;;;;;;;0.70;0.40;;;9.70;99.90;;;;;;5034658;28;20386;-69
2023/10/21 02:34:08;;;;;;;2.83;1.00;;;9.50;99.90;;;;;;5034625;28;20375;-69
2023/10/21 02:36:34;;;;;;;2.83;0.50;;;9.40;99.90;;;;;;5034348;28;20375;-69
2023/10/21 02:39:00;;;;;;;1.08;0.70;;;9.30;99.90;;;;;;5034142;28;20030;-69
2023/10/21 02:41:26;;;;;;;1.40;0.60;;;9.20;99.90;;;;;;5034404;28;20030;-69
2023/10/21 02:43:53;;;;;;;1.23;0.50;;;9.20;99.90;;;;;;5034194;28;20121;-69
2023/10/21 02:46:19;;;;;;;1.75;0.60;;;9.20;99.90;;;;;;5034369;28;20478;-70
2023/10/21 02:48:45;;;;;;;1.25;0.55;;;9.20;99.90;;;;;;5034303;28;20032;-69
2023/10/21 02:51:17;;;;;;;1.17;0.47;;;9.20;99.90;;;;;;5034266;28;20363;-69
2023/10/21 02:53:44;;;;;;;1.13;0.50;;;9.30;99.90;;;;;;5033954;28;20028;-69
2023/10/21 02:56:13;;;;;;;1.58;0.70;;;9.20;99.90;;;;;;5033954;28;20022;-69
2023/10/21 02:58:39;;;;;;;2.60;0.50;;;9.20;99.90;;;;;;5033695;28;20497;-69
2023/10/21 03:01:19;;;;;;;1.30;0.55;;;9.30;99.90;;;;;;5033718;28;20049;-70
2023/10/21 03:03:48;;;;;;;2.67;0.70;;;9.20;99.90;;;;;;5033838;28;20057;-69
2023/10/21 03:06:15;;;;;;;0.80;0.50;;;9.10;99.90;;;;;;5034033;28;20036;-69
2023/10/21 03:08:41;;;;;;;0.88;0.50;;;9.10;99.90;;;;;;5032502;28;20030;-69
2023/10/21 03:11:07;;;;;;;1.10;0.68;;;9.00;99.90;;;;;;5033602;28;20075;-69
2023/10/21 03:13:34;;;;;;;1.73;0.75;;;8.90;99.90;;;;;;5033934;28;20033;-69
2023/10/21 03:16:04;;;;;;;1.48;0.60;;;8.80;99.90;;;;;;5033609;28;20033;-69
2023/10/21 03:18:30;;;;;;;1.90;0.77;;;8.70;99.90;;;;;;5033584;28;20477;-69
2023/10/21 03:20:56;;;;;;;1.73;0.68;;;8.70;99.90;;;;;;5033351;28;20072;-69
2023/10/21 03:23:22;;;;;;;1.00;0.70;;;8.60;99.90;;;;;;5033537;28;20029;-69
2023/10/21 03:26:01;;;;;;;2.70;0.90;;;8.50;99.90;;;;;;5032223;28;20029;-70
2023/10/21 03:28:28;;;;;;;1.83;0.60;;;8.50;99.90;;;;;;5033702;28;20128;-69
2023/10/21 03:31:03;;;;;;;2.33;0.90;;;8.50;99.90;;;;;;5033365;28;20363;-69
2023/10/21 03:33:30;;;;;;;1.35;0.80;;;8.60;99.90;;;;;;5033400;28;20033;-69
2023/10/21 03:36:00;;;;;;;3.97;1.08;;;8.60;99.90;;;;;;5032664;28;20036;-69
2023/10/21 03:38:27;;;;;;;1.85;0.80;;;8.60;99.90;;;;;;5033348;28;20033;-69
2023/10/21 03:40:58;;;;;;;1.20;0.68;;;8.60;99.90;;;;;;5033181;28;20067;-69
2023/10/21 03:43:25;;;;;;;2.03;0.80;;;8.60;99.90;;;;;;5033307;28;20022;-69
2023/10/21 03:45:52;;;;;;;1.60;0.73;;;8.60;99.90;;;;;;5033409;28;20075;-69
2023/10/21 03:48:17;;;;;;;2.03;1.10;;;8.60;99.90;;;;;;5033489;28;20067;-69
2023/10/21 03:50:43;;;;;;;1.50;0.82;;;8.60;99.90;;;;;;5031960;28;20025;-69
2023/10/21 03:53:09;;;;;;;1.88;1.00;;;8.60;99.90;;;;;;5033256;28;20032;-69
2023/10/21 03:55:35;;;;;;;1.92;0.70;;;8.60;99.90;;;;;;5029702;28;20044;-69
2023/10/21 03:58:01;;;;;;;2.67;1.10;;;8.60;99.90;;;;;;5032052;28;20369;-69
2023/10/21 04:00:27;;;;;;;1.15;0.60;;;8.50;99.90;;;;;;5033134;28;20204;-69
2023/10/21 04:02:52;;;;;;;1.42;0.70;;;8.40;99.90;;;;;;5030713;28;20544;-69
2023/10/21 04:05:18;;;;;;;2.13;1.02;;;8.30;99.90;;;;;;5032510;28;20025;-69
2023/10/21 04:07:44;;;;;;;2.63;1.35;;;8.30;99.90;;;;;;5033029;28;20444;-69
2023/10/21 04:10:10;;;;;;;6.47;3.92;;;8.30;99.90;;;;;;5032348;28;20109;-69
2023/10/21 04:12:36;;;;;;;8.50;3.90;;;8.30;99.90;;;;;;5032382;28;20415;-69
2023/10/21 04:15:03;;;;;;;4.10;2.40;;;8.30;99.90;;;;;;5032598;28;20112;-69
2023/10/21 04:17:28;;;;;;;4.18;1.70;;;8.40;99.90;;;;;;5013130;28;20402;-69
2023/10/21 04:19:54;;;;;;;3.85;1.30;;;8.40;99.90;;;;;;5016926;28;20025;-69
2023/10/21 04:22:19;;;;;;;2.83;1.33;;;8.30;99.90;;;;;;5032247;28;20539;-69
2023/10/21 04:24:45;;;;;;;2.55;1.33;;;8.40;99.90;;;;;;5032480;28;20030;-69
2023/10/21 04:27:11;;;;;;;2.72;1.50;;;8.40;99.90;;;;;;5031977;28;20505;-69
2023/10/21 04:29:37;;;;;;;2.38;1.30;;;8.40;99.90;;;;;;5031793;28;20030;-69
2023/10/21 04:32:02;;;;;;;4.43;1.10;;;8.40;99.90;;;;;;5033145;28;20032;-69
2023/10/21 04:34:28;;;;;;;2.10;1.00;;;8.40;99.90;;;;;;5031787;28;20044;-69
2023/10/21 04:36:54;;;;;;;1.55;0.80;;;8.40;99.90;;;;;;5032772;28;20026;-69
2023/10/21 04:39:19;;;;;;;1.73;0.73;;;8.30;99.90;;;;;;5029464;28;20041;-69
2023/10/21 04:41:48;;;;;;;1.45;0.77;;;8.20;99.90;;;;;;5032336;28;20076;-69
2023/10/21 04:44:14;;;;;;;2.50;0.50;;;8.20;99.90;;;;;;5032190;28;20025;-69
2023/10/21 04:46:39;;;;;;;1.95;0.98;;;8.20;99.90;;;;;;5032647;28;20079;-69
2023/10/21 04:49:05;;;;;;;1.45;0.70;;;8.10;99.90;;;;;;5034560;28;20033;-69
2023/10/21 04:51:31;;;;;;;1.40;0.80;;;8.10;99.90;;;;;;5033300;28;20029;-69
2023/10/21 04:53:57;;;;;;;2.05;1.10;;;8.10;99.90;;;;;;5035644;28;20029;-69
2023/10/21 04:56:24;;;;;;;1.45;0.80;;;8.00;99.90;;;;;;5035222;28;20538;-69
2023/10/21 04:58:50;;;;;;;2.00;1.02;;;7.80;99.90;;;;;;5032388;28;20033;-69
2023/10/21 05:01:16;;;;;;;1.77;1.20;;;7.70;99.90;;;;;;5025277;28;20461;-69
2023/10/21 05:03:43;;;;;;;2.95;1.00;;;7.60;99.90;;;;;;5016729;28;20418;-69
2023/10/21 05:06:09;;;;;;;2.80;1.10;;;7.50;99.90;;;;;;5032743;28;20025;-69
2023/10/21 05:08:35;;;;;;;2.13;1.08;;;7.50;99.90;;;;;;5034140;28;20053;-69
2023/10/21 05:11:00;;;;;;;3.10;1.00;;;7.40;99.90;;;;;;5035650;28;20065;-69
2023/10/21 05:13:26;;;;;;;1.75;1.00;;;7.40;99.90;;;;;;5034540;28;20021;-69
2023/10/21 05:15:52;;;;;;;2.03;0.88;;;7.40;99.90;;;;;;5034167;28;20079;-69
2023/10/21 05:18:18;;;;;;;3.60;1.08;;;7.40;99.90;;;;;;5021732;28;20022;-69
2023/10/21 05:20:43;;;;;;;3.80;1.55;;;7.40;99.90;;;;;;5025006;28;20052;-69
2023/10/21 05:23:09;;;;;;;3.35;1.70;;;7.40;99.90;;;;;;5036430;28;20485;-69
2023/10/21 05:25:34;;;;;;;4.10;1.80;;;7.30;99.90;;;;;;5037366;28;20170;-69
2023/10/21 05:28:00;;;;;;;2.95;1.90;;;7.30;99.90;;;;;;5035429;28;20045;-69
2023/10/21 05:30:26;;;;;;;3.08;1.90;;;7.30;99.90;;;;;;5034004;28;20033;-69
2023/10/21 05:32:51;;;;;;;5.18;2.22;;;7.20;99.90;;;;;;5033737;28;20110;-69
2023/10/21 05:35:17;;;;;;;4.07;2.22;;;7.20;99.90;;;;;;5035281;28;20108;-69
2023/10/21 05:37:43;;;;;;;3.47;2.05;;;7.20;99.90;;;;;;5035453;28;20026;-69
2023/10/21 05:40:09;;;;;;;3.08;1.55;;;7.20;99.90;;;;;;5034546;28;20029;-69
2023/10/21 05:42:35;;;;;;;2.58;1.75;;;7.20;99.90;;;;;;5035818;28;20099;-69
2023/10/21 05:45:01;;;;;;;2.63;1.20;;;7.20;99.90;;;;;;5034336;28;20481;-69
2023/10/21 05:47:26;;;;;;;2.08;1.00;;;7.20;99.90;;;;;;5034949;28;20525;-69
2023/10/21 05:49:53;;;;;;;3.05;1.20;;;7.20;99.90;;;;;;5034369;28;20060;-69
2023/10/21 05:52:18;;;;;;;3.17;1.92;;;7.20;99.90;;;;;;5034613;28;20029;-69
2023/10/21 05:54:44;;;;;;;2.00;1.20;;;7.20;99.90;;;;;;5035225;28;20508;-69
2023/10/21 05:57:10;;;;;;;3.30;1.60;;;7.30;99.90;;;;;;5032416;28;20489;-70
2023/10/21 05:59:35;;;;;;;9.63;3.70;;;7.20;99.90;;;;;;5033915;28;20116;-69
2023/10/21 06:02:01;;;;;;;12.35;4.63;;;7.20;99.90;;;;;;5033900;28;20036;-69
2023/10/21 06:04:27;;;;;;;8.98;3.63;;;7.10;99.90;;;;;;5035130;28;20377;-69
2023/10/21 06:06:56;;;;;;;6.57;2.60;;;7.00;99.90;;;;;;5033866;28;20025;-69
2023/10/21 06:09:23;;;;;;;6.43;2.80;;;6.90;99.90;;;;;;5034578;28;20022;-69
2023/10/21 06:11:52;;;;;;;7.50;3.10;;;6.90;99.90;;;;;;5033738;28;20030;-69
2023/10/21 06:14:18;;;;;;;7.38;3.53;;;6.90;99.90;;;;;;5034596;28;20036;-69
2023/10/21 06:16:44;;;;;;;5.82;2.67;;;6.90;99.90;;;;;;5034727;28;20029;-69
2023/10/21 06:19:10;;;;;;;4.32;2.22;;;7.00;99.90;;;;;;5034793;28;20030;-69
2023/10/21 06:21:37;;;;;;;3.92;2.05;;;7.10;99.90;;;;;;5034455;28;20478;-69
2023/10/21 06:24:03;;;;;;;4.70;1.67;;;7.10;99.90;;;;;;5034591;28;20535;-69
2023/10/21 06:26:31;;;;;;;1.83;1.10;;;7.20;99.90;;;;;;5034426;28;20080;-69
2023/10/21 06:28:57;;;;;;;4.03;1.30;;;7.20;99.90;;;;;;5034343;28;20033;-69
2023/10/21 06:31:24;;;;;;;2.85;1.33;;;7.20;99.90;;;;;;5034460;28;20022;-69
2023/10/21 06:33:50;;;;;;;3.10;1.60;;;7.20;99.90;;;;;;5034349;28;20037;-69
2023/10/21 06:36:16;;;;;;;3.28;1.98;;;7.20;99.90;;;;;;5034127;28;20566;-69
2023/10/21 06:38:42;;;;;;;4.88;2.08;;;7.20;99.90;;;;;;5034256;28;20033;-69
2023/10/21 06:41:10;;;;;;;4.53;1.70;;;7.20;99.90;;;;;;5034072;28;20037;-69
2023/10/21 06:43:36;;;;;;;2.65;1.33;;;7.30;99.90;;;;;;5034200;28;20029;-69
2023/10/21 06:46:02;;;;;;;3.05;1.50;;;7.30;99.90;;;;;;5034403;28;20021;-69
2023/10/21 06:48:29;;;;;;;3.75;1.65;;;7.30;99.90;;;;;;5033200;28;20032;-69
2023/10/21 06:50:55;;;;;;;2.38;1.50;;;7.40;99.90;;;;;;5034458;28;20029;-69
2023/10/21 06:53:21;;;;;;;2.95;1.70;;;7.40;99.90;;;;;;5034172;28;20021;-69
2023/10/21 06:55:48;;;;;;;2.63;1.40;;;7.50;99.90;;;;;;5033911;28;20363;-69
2023/10/21 06:58:14;;;;;;;4.43;1.80;;;7.50;99.90;;;;;;5033793;28;20037;-69
2023/10/21 07:00:40;;;;;;;5.93;1.90;;;7.50;99.90;;;;;;5033896;28;20470;-69
2023/10/21 07:03:07;;;;;;;2.42;1.40;;;7.60;99.90;;;;;;5033975;28;20036;-69
2023/10/21 07:05:32;;;;;;;3.28;1.75;;;7.60;99.90;;;;;;5034192;28;20025;-69
2023/10/21 07:07:58;;;;;;;3.03;1.65;;;7.70;99.90;;;;;;5034078;28;20019;-69
2023/10/21 07:10:24;;;;;;;2.20;1.38;;;7.80;99.90;;;;;;5033700;28;20371;-69
2023/10/21 07:12:53;;;;;;;2.47;1.30;;;7.90;99.90;;;;;;5033823;28;20494;-69
2023/10/21 07:15:19;;;;;;;3.10;2.00;;;7.90;99.90;;;;;;5032499;28;20033;-69
2023/10/21 07:17:45;;;;;;;5.05;2.10;;;8.00;99.90;;;;;;5033641;28;20029;-69
2023/10/21 07:20:11;;;;;;;3.85;2.08;;;8.00;99.90;;;;;;5033556;28;20030;-69
2023/10/21 07:22:37;;;;;;;3.35;1.52;;;8.10;99.90;;;;;;5032255;28;20030;-69
2023/10/21 07:25:03;;;;;;;9.05;1.90;;;8.20;99.90;;;;;;5032415;28;20540;-69
2023/10/21 07:27:28;;;;;;;2.83;1.55;;;8.30;99.90;;;;;;5033786;28;20021;-69
2023/10/21 07:29:57;;;;;;;3.28;1.85;;;8.30;99.90;;;;;;5033390;28;20021;-69
2023/10/21 07:32:23;;;;;;;3.10;1.88;;;8.40;99.90;;;;;;5033759;28;20060;-69
2023/10/21 07:34:50;;;;;;;4.68;1.77;;;8.50;99.90;;;;;;5032149;28;20040;-69
2023/10/21 07:37:15;;;;;;;3.60;1.98;;;8.60;99.90;;;;;;5033986;28;20022;-69
2023/10/21 07:39:41;;;;;;;5.22;2.28;;;8.70;99.90;;;;;;5033284;28;20034;-69
2023/10/21 07:42:07;;;;;;;5.03;2.47;;;8.80;99.90;;;;;;5033820;28;20055;-70
2023/10/21 07:44:32;;;;;;;6.28;2.53;;;8.90;99.90;;;;;;5032083;28;20417;-70
2023/10/21 07:46:58;;;;;;;6.63;3.10;;;9.00;99.90;;;;;;5032072;28;20026;-71
2023/10/21 07:49:24;;;;;;;8.05;3.53;;;9.10;99.90;;;;;;5033224;28;20071;-71
2023/10/21 07:51:51;;;;;;;7.68;3.47;;;9.20;99.90;;;;;;5033513;28;20036;-71
2023/10/21 07:54:16;;;;;;;7.20;3.60;;;9.30;99.90;;;;;;5033169;28;20432;-71
2023/10/21 07:56:48;;;;;;;7.28;3.47;;;9.30;99.90;;;;;;5033219;28;20025;-70
2023/10/21 07:59:14;;;;;;;6.72;3.65;;;9.40;99.90;;;;;;5033145;28;20037;-70
2023/10/21 08:01:40;;;;;;;7.65;4.35;;;9.60;99.90;;;;;;5033121;28;20478;-71
2023/10/21 08:04:05;;;;;;;8.02;4.25;;;9.70;99.90;;;;;;5033151;28;20083;-71
2023/10/21 08:06:31;;;;;;;9.27;4.88;;;9.80;99.90;;;;;;5015622;28;20493;-71
2023/10/21 08:08:57;;;;;;;6.57;4.25;;;9.90;99.90;;;;;;5033325;28;20103;-71
2023/10/21 08:11:22;;;;;;;7.45;3.88;;;10.00;99.90;;;;;;5033305;28;20491;-71
2023/10/21 08:13:49;;;;;;;7.28;3.78;;;10.10;99.90;;;;;;5033295;28;20456;-71
2023/10/21 08:16:15;;;;;;;5.72;3.40;;;10.20;99.90;;;;;;5033040;28;20029;-71
2023/10/21 08:18:41;;;;;;;6.97;3.67;;;10.30;99.90;;;;;;5033066;28;20091;-71
2023/10/21 08:21:06;;;;;;;8.05;4.03;;;10.40;99.90;;;;;;5033176;28;20025;-71
2023/10/21 08:23:32;;;;;;;5.88;3.63;;;10.50;99.90;;;;;;5035885;28;20500;-71
2023/10/21 08:25:58;;;;;;;6.78;3.25;;;10.60;99.90;;;;;;5037050;28;20022;-71
2023/10/21 08:28:24;;;;;;;7.60;4.00;;;10.70;99.90;;;;;;5035637;28;20437;-71
2023/10/21 08:30:50;;;;;;;8.95;3.80;;;10.80;99.90;;;;;;5036570;28;20026;-71
2023/10/21 08:33:16;;;;;;;6.70;3.63;;;10.90;99.90;;;;;;5036673;28;20096;-70
2023/10/21 08:35:42;;;;;;;6.75;3.30;;;11.00;99.90;;;;;;5037066;28;20390;-71
2023/10/21 08:38:08;;;;;;;6.00;3.53;;;11.00;99.90;;;;;;5036857;28;20026;-71
2023/10/21 08:40:38;;;;;;;5.38;3.20;;;11.10;99.90;;;;;;5036484;28;20033;-71
2023/10/21 08:43:05;;;;;;;6.95;3.60;;;11.20;99.90;;;;;;5036485;28;20363;-71
2023/10/21 08:45:35;;;;;;;6.30;3.15;;;11.30;99.90;;;;;;5036659;28;20024;-70
2023/10/21 08:48:03;;;;;;;8.38;3.30;;;11.40;99.90;;;;;;5036476;28;20036;-71
2023/10/21 08:50:35;;;;;;;4.55;2.80;;;11.50;99.90;;;;;;5036402;28;20026;-70
2023/10/21 08:53:05;;;;;;;6.35;2.90;;;11.70;99.90;;;;;;5034974;28;20021;-70
2023/10/21 08:55:37;;;;;;;5.35;3.35;;;11.80;99.90;;;;;;5036071;28;20056;-71
2023/10/21 08:58:03;;;;;;;6.72;3.50;;;11.90;99.90;;;;;;5036031;28;20041;-71
2023/10/21 09:00:29;;;;;;;5.97;3.45;;;12.00;99.90;;;;;;5036014;28;20028;-70
2023/10/21 09:02:55;;;;;;;5.88;2.90;;;12.10;99.90;;;;;;5036200;28;20056;-71
2023/10/21 09:05:21;;;;;;;11.07;5.25;;;12.30;99.90;;;;;;5036051;28;20029;-71
2023/10/21 09:07:49;;;;;;;6.97;3.50;;;12.40;99.90;;;;;;5036056;28;20022;-71
2023/10/21 09:10:18;;;;;;;3.38;2.15;;;12.50;99.90;;;;;;5036040;28;20021;-70
2023/10/21 09:12:45;;;;;;;4.45;1.90;;;12.70;99.90;;;;;;5036207;28;20449;-70
2023/10/21 09:15:12;;;;;;;2.80;1.50;;;12.80;99.90;;;;;;5035909;28;20026;-71
2023/10/21 09:17:45;;;;;;;4.38;1.40;;;13.00;99.90;;;;;;5035913;28;20030;-70
2023/10/21 09:20:13;;;;;;;2.70;1.30;;;13.10;99.90;;;;;;5035829;28;20389;-71
2023/10/21 09:22:41;;;;;;;2.63;1.25;;;13.30;99.90;;;;;;5036013;28;20026;-71
2023/10/21 09:25:20;;;;;;;1.85;1.08;;;13.50;99.90;;;;;;5036004;28;20488;-70
2023/10/21 09:27:53;;;;;;;1.77;1.00;;;13.60;99.90;;;;;;5035656;28;20025;-71
2023/10/21 09:30:21;;;;;;;4.63;1.13;;;13.80;99.90;;;;;;5035563;28;20025;-71
2023/10/21 09:32:47;;;;;;;2.78;1.10;;;14.00;99.90;;;;;;5035587;28;20553;-71
2023/10/21 09:35:13;;;;;;;1.98;1.15;;;14.10;99.90;;;;;;5034388;28;20025;-70
2023/10/21 09:37:38;;;;;;;4.20;1.05;;;14.30;99.90;;;;;;5035454;28;20018;-70
2023/10/21 09:40:06;;;;;;;4.85;1.15;;;14.50;99.90;;;;;;5035337;28;20029;-71
2023/10/21 09:42:36;;;;;;;2.13;0.95;;;14.70;99.90;;;;;;5035427;28;20371;-71
2023/10/21 09:45:03;;;;;;;1.83;0.97;;;14.90;99.90;;;;;;5035439;28;20084;-70
2023/10/21 09:47:31;;;;;;;1.33;0.60;;;15.00;99.90;;;;;;5035382;28;20269;-70
2023/10/21 09:49:58;;;;;;;1.85;0.60;;;15.20;99.90;;;;;;5035690;28;20430;-70
2023/10/21 09:52:34;;;;;;;1.92;0.98;;;15.30;99.90;;;;;;5035215;28;20393;-70
2023/10/21 09:55:10;;;;;;;2.40;0.80;;;15.50;99.90;;;;;;5035807;28;20021;-70
2023/10/21 09:57:44;;;;;;;1.27;0.50;;;15.60;99.90;;;;;;5035136;28;20033;-71
2023/10/21 10:00:10;;;;;;;1.60;0.63;;;15.60;99.90;;;;;;5035087;28;20030;-70
2023/10/21 10:02:36;;;;;;;2.85;0.80;;;15.70;99.90;;;;;;5035849;28;20033;-70
2023/10/21 10:05:06;;;;;;;1.17;0.63;;;15.70;99.90;;;;;;5037038;28;20026;-71
2023/10/21 10:07:39;;;;;;;2.97;0.85;;;15.80;99.90;;;;;;5035643;28;20021;-71
2023/10/21 10:10:07;;;;;;;4.22;1.08;;;15.90;99.90;;;;;;5035184;28;20026;-70
2023/10/21 10:13:06;;;;;;;1.70;0.77;;;15.90;99.90;;;;;;5034840;28;20030;-71
2023/10/21 10:15:39;;;;;;;2.67;1.00;;;16.00;99.90;;;;;;5034762;28;20021;-71
2023/10/21 10:18:23;;;;;;;3.70;1.50;;;16.00;99.90;;;;;;5033701;28;20049;-71
2023/10/21 10:20:51;;;;;;;1.90;1.10;;;16.10;99.90;;;;;;5034887;28;20021;-70
2023/10/21 10:23:19;;;;;;;3.10;1.63;;;16.20;99.90;;;;;;5033350;28;20033;-71
2023/10/21 10:25:52;;;;;;;3.28;1.20;;;16.20;99.90;;;;;;5034578;28;20025;-71
2023/10/21 10:28:19;;;;;;;4.10;0.80;;;16.20;99.90;;;;;;5034705;28;20429;-71
2023/10/21 10:30:49;;;;;;;5.13;1.10;;;16.20;99.90;;;;;;5034432;28;20040;-71
2023/10/21 10:33:17;;;;;;;2.13;1.05;;;16.30;99.90;;;;;;5034379;28;20056;-71
2023/10/21 10:35:47;;;;;;;3.55;2.03;;;16.30;99.90;;;;;;5034312;28;20028;-71
2023/10/21 10:38:26;;;;;;;3.22;1.42;;;16.40;99.90;;;;;;5033059;28;20091;-71
2023/10/21 10:40:59;;;;;;;2.60;1.00;;;16.40;99.90;;;;;;5034281;28;20486;-71
2023/10/21 10:43:28;;;;;;;2.58;0.77;;;16.50;99.90;;;;;;5034411;28;20064;-71
2023/10/21 10:45:54;;;;;;;1.50;0.65;;;16.50;99.90;;;;;;5033834;28;20064;-71
2023/10/21 10:48:20;;;;;;;1.90;0.70;;;16.50;99.90;;;;;;5034450;28;20026;-71
2023/10/21 10:50:47;;;;;;;1.00;0.55;;;16.60;99.90;;;;;;5034120;28;20021;-71
2023/10/21 10:53:14;;;;;;;1.60;0.50;;;16.80;99.90;;;;;;5034179;28;20398;-70
2023/10/21 10:55:42;;;;;;;1.60;0.63;;;16.90;99.90;;;;;;5034115;28;20021;-71
2023/10/21 10:58:08;;;;;;;1.80;0.47;;;17.10;99.90;;;;;;5033889;28;20038;-71
2023/10/21 11:00:34;;;;;;;1.90;0.40;;;17.20;99.90;;;;;;5034289;28;20040;-71
2023/10/21 11:03:00;;;;;;;2.22;1.10;;;17.40;99.90;;;;;;5033916;28;20108;-71
2023/10/21 11:05:28;;;;;;;1.50;0.70;;;17.50;99.90;;;;;;5033878;28;20478;-70
2023/10/21 11:07:55;;;;;;;1.02;0.50;;;17.60;99.90;;;;;;5033840;28;20024;-71
2023/10/21 11:10:22;;;;;;;1.25;0.40;;;17.60;99.90;;;;;;5033811;28;20378;-71
2023/10/21 11:12:49;;;;;;;2.58;1.40;;;17.60;99.90;;;;;;5033845;28;20025;-71
2023/10/21 11:15:16;;;;;;;2.38;0.88;;;17.60;99.90;;;;;;5033965;28;20482;-71
2023/10/21 11:17:43;;;;;;;1.10;0.60;;;17.70;99.90;;;;;;5033744;28;20021;-71
2023/10/21 11:20:13;;;;;;;1.40;0.50;;;17.80;99.90;;;;;;5033589;28;20033;-71
2023/10/21 11:22:39;;;;;;;0.90;0.40;;;17.80;99.90;;;;;;5033579;28;20029;-70
2023/10/21 11:25:05;;;;;;;1.52;0.40;;;17.90;99.90;;;;;;5032483;28;20018;-70
2023/10/21 11:27:32;;;;;;;0.50;0.30;;;18.00;99.90;;;;;;5033093;28;20025;-71
2023/10/21 11:29:59;;;;;;;1.35;0.60;;;18.10;99.90;;;;;;5032599;28;20013;-71
2023/10/21 11:32:28;;;;;;;1.50;0.50;;;18.10;99.90;;;;;;5033044;28;20075;-70
2023/10/21 11:34:55;;;;;;;0.75;0.40;;;18.10;99.90;;;;;;5033371;28;20490;-70
2023/10/21 11:37:21;;;;;;;0.77;0.30;;;18.20;99.90;;;;;;5032334;28;20133;-70
2023/10/21 11:39:49;;;;;;;0.25;0.20;;;18.30;99.90;;;;;;5033164;28;20112;-71
2023/10/21 11:42:20;;;;;;;0.13;0.10;;;18.40;99.90;;;;;;5033171;28;20036;-70
2023/10/21 11:44:59;;;;;;;0.35;0.15;;;18.50;99.90;;;;;;5033260;28;20067;-70
2023/10/21 11:47:30;;;;;;;0.40;0.20;;;18.60;99.90;;;;;;5032948;28;20032;-70
2023/10/21 11:49:57;;;;;;;0.30;0.20;;;18.80;99.90;;;;;;5033062;28;20416;-70
2023/10/21 11:52:26;;;;;;;0.50;0.20;;;18.90;98.40;;;;;;5031895;28;20064;-70
2023/10/21 12:19:00;;;;;;;0.57;0.10;;;19.10;96.50;;;;;;5037146;28;20061;-70
2023/10/21 12:31:46;;;;;;;1.25;0.20;;;19.50;95.20;;;;;;5036743;28;20100;-70
2023/10/21 12:36:42;;;;;;;0.43;0.30;;;19.50;95.30;;;;;;5036926;28;20021;-70
2023/10/21 12:41:53;;;;;;;2.03;0.30;;;19.50;94.80;;;;;;5037902;28;20124;-71
2023/10/21 12:44:24;;;;;;;0.70;0.20;;;19.50;95.10;;;;;;5038185;28;20029;-71
2023/10/21 12:46:55;;;;;;;0.93;0.10;;;19.50;94.80;;;;;;5038536;28;20045;-70
2023/10/21 12:49:24;;;;;;;0.30;0.10;;;19.50;94.50;;;;;;5037325;28;20411;-70
2023/10/21 12:51:52;;;;;;;1.05;0.40;;;19.40;94.60;;;;;;5036378;28;20056;-71
2023/10/21 12:54:17;;;;;;;3.00;0.30;;;19.40;94.80;;;;;;5035004;28;20116;-70
2023/10/21 12:56:43;;;;;;;2.00;0.20;;;19.50;95.10;;;;;;5036474;28;20429;-70
2023/10/21 12:59:08;;;;;;;0.28;0.17;;;19.50;94.90;;;;;;5036075;28;20038;-70
2023/10/21 13:01:38;;;;;;;0.43;0.10;;;19.50;94.40;;;;;;5035201;28;20056;-71
2023/10/21 13:04:04;;;;;;;0.50;0.30;;;19.50;95.10;;;;;;5036259;28;20052;-70
2023/10/21 13:06:30;;;;;;;1.02;0.20;;;19.60;94.50;;;;;;5036364;28;20029;-69
2023/10/21 13:08:56;;;;;;;2.38;0.20;;;19.60;94.50;;;;;;5034895;28;20040;-70
2023/10/21 13:11:22;;;;;;;0.65;0.20;;;19.60;93.90;;;;;;5034753;28;20025;-71
2023/10/21 13:13:50;;;;;;;0.73;0.17;;;19.50;94.70;;;;;;5035993;28;20030;-70
2023/10/21 13:16:18;;;;;;;0.85;0.38;;;19.50;94.50;;;;;;5035958;28;20432;-70
2023/10/21 13:18:44;;;;;;;0.55;0.30;;;19.40;94.30;;;;;;5035850;28;20028;-70
2023/10/21 13:21:10;;;;;;;0.57;0.20;;;19.40;94.60;;;;;;5035749;28;20021;-70
2023/10/21 13:23:36;;;;;;;1.50;0.20;;;19.40;95.60;;;;;;5035775;28;20025;-71
2023/10/21 13:26:06;;;;;;;2.60;0.60;;;19.40;94.50;;;;;;5035888;28;20028;-71
2023/10/21 13:28:36;;;;;;;0.30;0.10;;;19.40;95.00;;;;;;5035999;28;20386;-71